Time;durP1;ratioP1;P1;durP2;ratioP2;P2;SDS_P1;SDS_P2;PMS_P1;PMS_P2;Temp;Humidity;BMP_temperature;BMP_pressure;BME280_temperature;BME280_humidity;BME280_pressure;Samples;Min_cycle;Max_cycle;Signal;HPM_P1;HPM_P2
2023/06/25 00:00:28;;;;;;;8.45;4.90;;;19.80;99.90;;;;;;4222854;28;20044;-86
2023/06/25 00:02:40;;;;;;;8.38;4.57;;;19.80;99.90;;;;;;4239658;28;20047;-85
2023/06/25 00:05:18;;;;;;;8.57;5.43;;;19.70;99.90;;;;;;4217597;28;20048;-84
2023/06/25 00:07:19;;;;;;;7.03;4.78;;;19.60;99.90;;;;;;4243378;28;20039;-83
2023/06/25 00:09:20;;;;;;;12.20;5.82;;;19.60;99.90;;;;;;4232787;28;20028;-84
2023/06/25 00:11:22;;;;;;;8.45;5.60;;;19.50;99.90;;;;;;4221263;28;20048;-84
2023/06/25 00:13:22;;;;;;;14.82;6.10;;;19.60;99.90;;;;;;4230851;28;20561;-84
2023/06/25 00:15:23;;;;;;;7.45;5.13;;;19.50;99.90;;;;;;4225419;28;20051;-83
2023/06/25 00:17:27;;;;;;;8.60;5.18;;;19.50;99.90;;;;;;4231697;28;20067;-83
2023/06/25 00:19:31;;;;;;;10.23;5.55;;;19.40;99.90;;;;;;4233848;28;20028;-84
2023/06/25 00:21:32;;;;;;;11.27;5.60;;;19.40;99.90;;;;;;4235870;28;20020;-85
2023/06/25 00:23:33;;;;;;;10.65;6.10;;;19.40;99.90;;;;;;4234922;28;20058;-85
2023/06/25 00:25:34;;;;;;;9.15;6.15;;;19.40;99.90;;;;;;4235762;28;20056;-84
2023/06/25 00:27:35;;;;;;;12.10;6.28;;;19.40;99.90;;;;;;4235265;28;20040;-85
2023/06/25 00:29:36;;;;;;;13.02;6.45;;;19.30;99.90;;;;;;4229486;28;20050;-85
2023/06/25 00:31:37;;;;;;;10.65;5.93;;;19.30;99.90;;;;;;4233726;28;20048;-84
2023/06/25 00:33:38;;;;;;;11.00;6.53;;;19.30;99.90;;;;;;4217026;28;20101;-85
2023/06/25 00:35:59;;;;;;;10.10;6.13;;;19.30;99.90;;;;;;4232775;28;20044;-85
2023/06/25 00:38:01;;;;;;;11.40;6.18;;;19.30;99.90;;;;;;4216516;28;20096;-84
2023/06/25 00:40:02;;;;;;;11.75;6.75;;;19.20;99.90;;;;;;4217011;28;20050;-85
2023/06/25 00:42:03;;;;;;;13.45;7.28;;;19.20;99.90;;;;;;4216771;28;20048;-84
2023/06/25 00:44:07;;;;;;;10.77;7.15;;;19.20;99.90;;;;;;4217399;28;20412;-84
2023/06/25 00:46:15;;;;;;;14.60;6.22;;;19.10;99.90;;;;;;4211786;28;20133;-85
2023/06/25 00:48:17;;;;;;;10.82;6.60;;;19.10;99.90;;;;;;4223162;28;20056;-85
2023/06/25 00:50:21;;;;;;;9.80;6.18;;;19.10;99.90;;;;;;4200531;28;20044;-85
2023/06/25 00:52:22;;;;;;;11.15;6.22;;;19.10;99.90;;;;;;4211775;28;20622;-84
2023/06/25 00:54:23;;;;;;;10.32;5.80;;;19.10;99.90;;;;;;4217381;28;20044;-85
2023/06/25 00:56:29;;;;;;;12.77;5.82;;;19.10;99.90;;;;;;4216664;28;20113;-84
2023/06/25 00:58:34;;;;;;;11.82;5.80;;;19.00;99.90;;;;;;4217703;28;20054;-85
2023/06/25 01:00:35;;;;;;;9.50;5.22;;;19.00;99.90;;;;;;4216629;28;20056;-85
2023/06/25 01:02:44;;;;;;;9.73;5.90;;;19.00;99.90;;;;;;4233319;28;20507;-85
2023/06/25 01:04:57;;;;;;;9.20;5.47;;;19.00;99.90;;;;;;4208954;28;20082;-85
2023/06/25 01:07:11;;;;;;;10.63;6.15;;;19.00;99.90;;;;;;4200376;28;20229;-85
2023/06/25 01:09:16;;;;;;;10.52;4.72;;;18.90;99.90;;;;;;4199219;28;20131;-84
2023/06/25 01:11:17;;;;;;;10.13;5.40;;;18.90;99.90;;;;;;4200782;28;20473;-85
2023/06/25 01:13:18;;;;;;;10.43;5.50;;;18.90;99.90;;;;;;4200688;28;20040;-84
2023/06/25 01:15:18;;;;;;;8.25;5.10;;;18.80;99.90;;;;;;4200843;28;20045;-86
2023/06/25 01:17:20;;;;;;;8.50;5.15;;;18.80;99.90;;;;;;4200569;28;20044;-85
2023/06/25 01:19:29;;;;;;;10.57;5.32;;;18.80;99.90;;;;;;4199566;28;20052;-85
2023/06/25 01:21:31;;;;;;;10.77;6.70;;;18.80;99.90;;;;;;4192182;28;20080;-86
2023/06/25 01:23:32;;;;;;;11.35;6.53;;;18.70;99.90;;;;;;4200571;28;20107;-85
2023/06/25 01:25:36;;;;;;;10.60;5.90;;;18.70;99.90;;;;;;4201021;28;20052;-85
2023/06/25 01:27:37;;;;;;;10.57;6.32;;;18.60;99.90;;;;;;4219270;28;20048;-85
2023/06/25 01:29:38;;;;;;;12.80;6.75;;;18.70;99.90;;;;;;4202294;28;20048;-85
2023/06/25 01:31:40;;;;;;;8.95;5.85;;;18.60;99.90;;;;;;4202332;28;20040;-85
2023/06/25 01:33:41;;;;;;;9.68;6.20;;;18.60;99.90;;;;;;4204186;28;20512;-85
2023/06/25 01:35:42;;;;;;;10.38;5.85;;;18.60;99.90;;;;;;4219525;28;20048;-85
2023/06/25 01:37:43;;;;;;;11.75;6.57;;;18.60;99.90;;;;;;4203155;28;20055;-85
2023/06/25 01:39:53;;;;;;;10.32;6.28;;;18.60;99.90;;;;;;4205941;28;20513;-85
2023/06/25 01:41:54;;;;;;;15.52;6.68;;;18.60;99.90;;;;;;4218587;28;20052;-85
2023/06/25 01:43:55;;;;;;;10.00;6.35;;;18.50;99.90;;;;;;4219300;28;20043;-85
2023/06/25 01:45:56;;;;;;;12.40;6.95;;;18.40;99.90;;;;;;4218954;28;20040;-86
2023/06/25 01:47:57;;;;;;;13.18;6.60;;;18.40;99.90;;;;;;4202042;28;20059;-85
2023/06/25 01:49:58;;;;;;;9.13;6.00;;;18.30;99.90;;;;;;4235599;28;20439;-85
2023/06/25 01:52:00;;;;;;;10.10;5.95;;;18.30;99.90;;;;;;4218735;28;20109;-86
2023/06/25 01:54:01;;;;;;;17.73;6.95;;;18.30;99.90;;;;;;4236035;28;20074;-85
2023/06/25 01:56:02;;;;;;;18.27;7.40;;;18.20;99.90;;;;;;4219609;28;20047;-86
2023/06/25 01:58:02;;;;;;;10.75;6.40;;;18.20;99.90;;;;;;4217912;28;20170;-85
2023/06/25 02:00:06;;;;;;;13.80;8.10;;;18.20;99.90;;;;;;4201879;28;20086;-85
2023/06/25 02:02:07;;;;;;;10.65;6.30;;;18.20;99.90;;;;;;4203151;28;20052;-84
2023/06/25 02:04:08;;;;;;;13.35;6.70;;;18.10;99.90;;;;;;4203142;28;20032;-85
2023/06/25 02:06:10;;;;;;;11.00;7.00;;;18.10;99.90;;;;;;4202417;28;20147;-85
2023/06/25 02:08:11;;;;;;;12.05;6.28;;;18.10;99.90;;;;;;4202725;28;20052;-85
2023/06/25 02:10:15;;;;;;;13.48;6.82;;;18.10;99.90;;;;;;4202615;28;20385;-86
2023/06/25 02:12:16;;;;;;;11.55;6.65;;;18.10;99.90;;;;;;4202895;28;20040;-86
2023/06/25 02:14:17;;;;;;;9.80;6.10;;;18.10;99.90;;;;;;4202593;28;20040;-85
2023/06/25 02:16:17;;;;;;;11.85;7.35;;;18.10;99.90;;;;;;4208481;28;20047;-83
2023/06/25 02:18:19;;;;;;;11.40;6.50;;;18.00;99.90;;;;;;4217659;28;20052;-84
2023/06/25 02:20:20;;;;;;;12.35;7.07;;;18.10;99.90;;;;;;4202327;28;20053;-84
2023/06/25 02:22:20;;;;;;;12.48;6.45;;;18.00;99.90;;;;;;4202283;28;20131;-85
2023/06/25 02:24:22;;;;;;;13.30;7.82;;;18.10;99.90;;;;;;4202777;28;20045;-85
2023/06/25 02:26:23;;;;;;;18.35;8.63;;;18.10;99.90;;;;;;4202107;28;20056;-85
2023/06/25 02:28:24;;;;;;;12.98;7.65;;;18.10;99.90;;;;;;4202925;28;20036;-85
2023/06/25 02:30:24;;;;;;;14.77;8.15;;;18.10;99.90;;;;;;4219017;28;20461;-85
2023/06/25 02:32:25;;;;;;;10.52;7.35;;;18.10;99.90;;;;;;4200417;28;20521;-85
2023/06/25 02:34:26;;;;;;;11.00;7.03;;;18.10;99.90;;;;;;4202572;28;20098;-84
2023/06/25 02:36:32;;;;;;;13.57;7.60;;;18.10;99.90;;;;;;4202620;28;20055;-84
2023/06/25 02:38:33;;;;;;;14.23;7.50;;;18.10;99.90;;;;;;4201743;28;20048;-84
2023/06/25 02:40:35;;;;;;;12.32;6.80;;;18.10;99.90;;;;;;4208990;28;20059;-85
2023/06/25 02:42:37;;;;;;;13.10;7.15;;;18.10;99.90;;;;;;4219426;28;20043;-86
2023/06/25 02:44:38;;;;;;;11.27;6.72;;;18.10;99.90;;;;;;4219976;28;20032;-85
2023/06/25 02:46:38;;;;;;;12.68;7.10;;;18.00;99.90;;;;;;4219011;28;20093;-84
2023/06/25 02:48:42;;;;;;;14.43;6.50;;;18.10;99.90;;;;;;4218354;28;20048;-87
2023/06/25 02:50:43;;;;;;;11.40;7.90;;;18.00;99.90;;;;;;4190440;28;20037;-88
2023/06/25 02:52:44;;;;;;;12.45;6.25;;;18.00;99.90;;;;;;4217744;28;20558;-87
2023/06/25 02:54:47;;;;;;;10.02;6.13;;;18.00;99.90;;;;;;4204180;28;20382;-86
2023/06/25 02:56:48;;;;;;;13.15;6.95;;;18.00;99.90;;;;;;4201938;28;20045;-87
2023/06/25 02:58:49;;;;;;;11.10;7.28;;;17.90;99.90;;;;;;4217029;28;20097;-87
2023/06/25 03:00:50;;;;;;;10.02;6.75;;;17.90;99.90;;;;;;4200749;28;20052;-87
2023/06/25 03:02:51;;;;;;;12.05;6.63;;;17.90;99.90;;;;;;4218215;28;20044;-87
2023/06/25 03:04:52;;;;;;;13.63;8.27;;;17.90;99.90;;;;;;4201346;28;20510;-87
2023/06/25 03:06:52;;;;;;;12.32;6.40;;;17.80;99.90;;;;;;4206642;28;20051;-87
2023/06/25 03:08:54;;;;;;;11.10;6.45;;;17.80;99.90;;;;;;4218467;28;20488;-86
2023/06/25 03:10:55;;;;;;;11.02;6.90;;;17.80;99.90;;;;;;4219319;28;20101;-86
2023/06/25 03:12:58;;;;;;;11.73;7.05;;;17.80;99.90;;;;;;4218932;28;20104;-86
2023/06/25 03:14:59;;;;;;;12.65;7.43;;;17.80;99.90;;;;;;4233521;28;20047;-86
2023/06/25 03:17:00;;;;;;;13.75;6.95;;;17.70;99.90;;;;;;4218622;28;20496;-86
2023/06/25 03:19:01;;;;;;;13.10;7.07;;;17.70;99.90;;;;;;4215830;28;20051;-88
2023/06/25 03:21:02;;;;;;;14.18;7.38;;;17.70;99.90;;;;;;4218312;28;20054;-87
2023/06/25 03:23:03;;;;;;;12.18;6.90;;;17.70;99.90;;;;;;4230912;28;20051;-86
2023/06/25 03:25:04;;;;;;;17.08;7.75;;;17.70;99.90;;;;;;4217866;28;20044;-87
2023/06/25 03:27:07;;;;;;;12.68;7.20;;;17.70;99.90;;;;;;4217176;28;20594;-87
2023/06/25 03:29:08;;;;;;;13.45;7.70;;;17.70;99.90;;;;;;4218364;28;20052;-87
2023/06/25 03:31:09;;;;;;;15.15;8.25;;;17.80;99.90;;;;;;4218256;28;20048;-87
2023/06/25 03:33:09;;;;;;;14.23;7.50;;;17.80;99.90;;;;;;4217190;28;20469;-85
2023/06/25 03:35:10;;;;;;;13.38;7.55;;;17.00;99.90;;;;;;4218116;28;20095;-86
2023/06/25 03:37:12;;;;;;;13.65;8.02;;;17.80;99.90;;;;;;4217398;28;20040;-87
2023/06/25 03:39:12;;;;;;;13.35;6.85;;;17.80;99.90;;;;;;4218059;28;20499;-87
2023/06/25 03:41:20;;;;;;;14.63;8.38;;;17.80;99.90;;;;;;4214517;28;20093;-87
2023/06/25 03:43:21;;;;;;;14.13;8.13;;;17.80;99.90;;;;;;4215715;28;20127;-86
2023/06/25 03:45:22;;;;;;;17.45;9.10;;;17.80;99.90;;;;;;4217574;28;20055;-87
2023/06/25 03:47:23;;;;;;;12.75;7.18;;;17.80;99.90;;;;;;4215736;28;20048;-86
2023/06/25 03:49:24;;;;;;;13.27;7.85;;;17.80;99.90;;;;;;4217658;28;20044;-87
2023/06/25 03:51:25;;;;;;;13.90;8.38;;;17.80;99.90;;;;;;4217147;28;20040;-87
2023/06/25 03:53:27;;;;;;;20.02;9.48;;;17.90;99.90;;;;;;4218526;28;20056;-86
2023/06/25 03:55:30;;;;;;;16.17;8.43;;;17.90;99.90;;;;;;4216827;28;20119;-87
2023/06/25 03:57:30;;;;;;;15.50;8.50;;;17.90;99.90;;;;;;4211661;28;20076;-87
2023/06/25 03:59:32;;;;;;;14.35;8.05;;;17.90;99.90;;;;;;4217878;28;20138;-86
2023/06/25 04:01:33;;;;;;;15.43;8.32;;;17.90;99.90;;;;;;4233731;28;20420;-86
2023/06/25 04:03:34;;;;;;;23.38;8.75;;;17.90;99.90;;;;;;4218986;28;20147;-86
2023/06/25 04:05:35;;;;;;;15.63;8.18;;;18.00;99.90;;;;;;4217413;28;20545;-86
2023/06/25 04:07:36;;;;;;;18.08;7.80;;;18.00;99.90;;;;;;4218219;28;20115;-86
2023/06/25 04:09:36;;;;;;;13.10;7.90;;;18.00;99.90;;;;;;4233374;28;20044;-86
2023/06/25 04:11:37;;;;;;;13.07;7.85;;;18.00;99.90;;;;;;4218246;28;20056;-86
2023/06/25 04:13:38;;;;;;;15.30;7.85;;;18.00;99.90;;;;;;4217285;28;20388;-86
2023/06/25 04:15:40;;;;;;;15.43;7.82;;;18.10;99.90;;;;;;4217716;28;20050;-87
2023/06/25 04:17:40;;;;;;;13.88;7.40;;;18.10;99.90;;;;;;4219612;28;20526;-88
2023/06/25 04:19:48;;;;;;;12.93;7.85;;;18.10;99.90;;;;;;4219911;28;20079;-86
2023/06/25 04:21:50;;;;;;;14.68;7.05;;;18.10;99.90;;;;;;4219184;28;20050;-86
2023/06/25 04:23:53;;;;;;;13.15;6.85;;;18.10;99.90;;;;;;4217209;28;20040;-87
2023/06/25 04:25:55;;;;;;;14.10;6.68;;;18.20;99.90;;;;;;4234802;28;20047;-87
2023/06/25 04:27:56;;;;;;;13.57;7.80;;;18.20;99.90;;;;;;4221236;28;20044;-88
2023/06/25 04:29:57;;;;;;;15.60;8.02;;;18.20;99.90;;;;;;4222700;28;20043;-87
2023/06/25 04:32:01;;;;;;;18.45;7.90;;;18.20;99.90;;;;;;4222690;28;20036;-87
2023/06/25 04:34:12;;;;;;;12.05;6.93;;;18.20;99.90;;;;;;4216229;28;20048;-87
2023/06/25 04:36:14;;;;;;;11.40;6.55;;;18.30;99.90;;;;;;4201512;28;20496;-87
2023/06/25 04:38:15;;;;;;;12.63;6.97;;;18.30;99.90;;;;;;4200422;28;20412;-87
2023/06/25 04:40:16;;;;;;;12.18;7.40;;;18.30;99.90;;;;;;4199045;28;20049;-87
2023/06/25 04:42:16;;;;;;;12.85;6.90;;;18.40;99.90;;;;;;4199711;28;20123;-87
2023/06/25 04:44:17;;;;;;;11.70;6.32;;;18.40;99.90;;;;;;4198947;28;20079;-87
2023/06/25 04:46:18;;;;;;;10.10;6.38;;;18.40;99.90;;;;;;4201385;28;20517;-87
2023/06/25 04:48:19;;;;;;;14.48;7.25;;;18.50;99.90;;;;;;4199056;28;20059;-87
2023/06/25 04:50:23;;;;;;;11.80;6.95;;;18.50;99.90;;;;;;4200303;28;20077;-87
2023/06/25 04:52:23;;;;;;;14.77;8.23;;;18.50;99.90;;;;;;4208876;28;20048;-87
2023/06/25 04:54:24;;;;;;;13.48;6.18;;;18.60;99.90;;;;;;4215431;28;20054;-86
2023/06/25 04:56:25;;;;;;;14.30;6.78;;;18.60;99.90;;;;;;4217275;28;20063;-88
2023/06/25 04:58:26;;;;;;;15.30;7.45;;;18.60;99.90;;;;;;4216226;28;20043;-88
2023/06/25 05:00:27;;;;;;;12.38;7.07;;;18.70;99.90;;;;;;4211864;28;20098;-87
2023/06/25 05:02:28;;;;;;;13.85;7.10;;;18.70;99.90;;;;;;4214251;28;20080;-87
2023/06/25 05:04:29;;;;;;;13.40;7.05;;;18.70;99.90;;;;;;4215134;28;20063;-87
2023/06/25 05:06:30;;;;;;;12.65;6.70;;;18.80;99.90;;;;;;4215464;28;20047;-87
2023/06/25 05:08:30;;;;;;;12.05;6.82;;;18.80;99.90;;;;;;4216410;28;20073;-88
2023/06/25 05:10:32;;;;;;;16.60;7.38;;;18.90;99.90;;;;;;4216022;28;20434;-88
2023/06/25 05:12:33;;;;;;;13.95;6.38;;;18.90;99.90;;;;;;4216535;28;20446;-88
2023/06/25 05:14:34;;;;;;;13.00;7.22;;;19.00;99.90;;;;;;4215601;28;20127;-87
2023/06/25 05:16:36;;;;;;;12.07;6.82;;;19.00;99.90;;;;;;4216287;28;20048;-86
2023/06/25 05:18:38;;;;;;;10.65;6.20;;;19.10;99.90;;;;;;4212682;28;20043;-87
2023/06/25 05:20:39;;;;;;;12.40;7.00;;;19.20;99.90;;;;;;4216205;28;20086;-87
2023/06/25 05:22:39;;;;;;;10.02;6.60;;;19.20;99.90;;;;;;4232598;28;20048;-87
2023/06/25 05:24:40;;;;;;;11.32;6.22;;;19.20;99.90;;;;;;4216895;28;20119;-87
2023/06/25 05:26:41;;;;;;;15.95;6.72;;;19.30;99.90;;;;;;4216150;28;20093;-87
2023/06/25 05:28:42;;;;;;;12.30;6.28;;;19.30;99.90;;;;;;4216434;28;20036;-87
2023/06/25 05:30:42;;;;;;;11.15;6.28;;;19.40;99.90;;;;;;4214981;28;20052;-87
2023/06/25 05:32:43;;;;;;;11.43;6.60;;;19.40;99.90;;;;;;4215749;28;20055;-86
2023/06/25 05:34:44;;;;;;;11.82;7.13;;;19.60;99.90;;;;;;4230453;28;20044;-86
2023/06/25 05:36:45;;;;;;;12.45;6.50;;;19.50;99.90;;;;;;4208888;28;20128;-87
2023/06/25 05:38:45;;;;;;;12.00;7.18;;;19.60;99.90;;;;;;4215615;28;20046;-87
2023/06/25 05:40:46;;;;;;;10.55;6.28;;;19.70;99.90;;;;;;4216258;28;20493;-86
2023/06/25 05:42:47;;;;;;;11.07;6.45;;;19.70;99.90;;;;;;4218198;28;20040;-89
2023/06/25 05:44:48;;;;;;;11.07;6.43;;;19.80;99.90;;;;;;4216827;28;20043;-86
2023/06/25 05:46:48;;;;;;;11.25;6.45;;;19.90;99.90;;;;;;4216370;28;20476;-86
2023/06/25 05:48:49;;;;;;;11.20;6.15;;;20.00;99.90;;;;;;4212713;28;20062;-86
2023/06/25 05:50:50;;;;;;;13.25;6.05;;;20.10;99.90;;;;;;4218032;28;20039;-86
2023/06/25 05:52:52;;;;;;;11.60;6.45;;;20.10;99.90;;;;;;4201831;28;20146;-86
2023/06/25 05:54:52;;;;;;;12.75;6.32;;;20.20;99.90;;;;;;4198140;28;20131;-86
2023/06/25 05:56:54;;;;;;;11.98;6.47;;;20.20;99.90;;;;;;4214372;28;20040;-87
2023/06/25 05:58:55;;;;;;;12.70;6.05;;;20.30;99.90;;;;;;4216161;28;20783;-85
2023/06/25 06:00:57;;;;;;;11.38;6.93;;;20.50;99.90;;;;;;4215991;28;20149;-85
2023/06/25 06:02:57;;;;;;;13.02;7.32;;;20.50;99.90;;;;;;4216314;28;20127;-86
2023/06/25 06:04:58;;;;;;;11.80;6.43;;;20.60;99.90;;;;;;4215993;28;20035;-86
2023/06/25 06:06:59;;;;;;;10.57;5.82;;;20.60;99.90;;;;;;4215072;28;20072;-86
2023/06/25 06:09:00;;;;;;;17.05;6.45;;;20.60;99.90;;;;;;4216005;28;20575;-86
2023/06/25 06:11:02;;;;;;;14.77;6.35;;;20.70;99.90;;;;;;4215851;28;20436;-85
2023/06/25 06:13:03;;;;;;;10.73;5.45;;;20.80;99.90;;;;;;4211604;28;20046;-85
2023/06/25 06:15:04;;;;;;;11.95;6.13;;;20.90;99.90;;;;;;4219459;28;20043;-85
2023/06/25 06:17:05;;;;;;;10.30;5.47;;;20.90;99.90;;;;;;4218682;28;20510;-85
2023/06/25 06:19:06;;;;;;;9.77;5.63;;;21.00;99.90;;;;;;4219178;28;20044;-86
2023/06/25 06:21:06;;;;;;;12.05;6.00;;;21.10;99.90;;;;;;4219888;28;20090;-85
2023/06/25 06:23:07;;;;;;;9.57;5.53;;;21.20;99.90;;;;;;4219512;28;20048;-85
2023/06/25 06:25:09;;;;;;;11.43;5.13;;;21.20;99.90;;;;;;4219147;28;20097;-85
2023/06/25 06:27:10;;;;;;;9.98;5.55;;;21.30;99.90;;;;;;4218391;28;20048;-86
2023/06/25 06:29:11;;;;;;;8.45;5.28;;;21.40;99.90;;;;;;4219075;28;20395;-85
2023/06/25 06:31:11;;;;;;;11.10;5.68;;;21.50;99.90;;;;;;4218317;28;20071;-85
2023/06/25 06:33:13;;;;;;;8.85;4.78;;;21.50;99.90;;;;;;4230919;28;20601;-85
2023/06/25 06:35:14;;;;;;;9.15;4.85;;;21.50;99.90;;;;;;4234803;28;20052;-86
2023/06/25 06:37:15;;;;;;;8.15;4.25;;;21.70;99.90;;;;;;4235382;28;20538;-85
2023/06/25 06:39:17;;;;;;;7.53;4.82;;;21.80;99.90;;;;;;4217809;28;20048;-85
2023/06/25 06:41:19;;;;;;;8.10;4.55;;;21.90;99.90;;;;;;4219215;28;20106;-86
2023/06/25 06:43:19;;;;;;;6.43;4.18;;;22.00;99.90;;;;;;4218329;28;20044;-85
2023/06/25 06:45:20;;;;;;;9.52;4.35;;;22.10;99.90;;;;;;4217673;28;20048;-86
2023/06/25 06:47:22;;;;;;;6.18;3.85;;;22.10;99.90;;;;;;4218964;28;20113;-86
2023/06/25 06:49:26;;;;;;;7.50;4.40;;;22.20;99.90;;;;;;4219200;28;20047;-85
2023/06/25 06:51:28;;;;;;;9.48;4.80;;;22.30;99.90;;;;;;4209378;28;20154;-85
2023/06/25 06:53:29;;;;;;;8.85;5.03;;;22.40;99.90;;;;;;4204351;28;20460;-86
2023/06/25 06:55:33;;;;;;;8.60;4.97;;;22.40;99.90;;;;;;4213251;28;20400;-86
2023/06/25 06:57:36;;;;;;;9.00;4.80;;;22.50;99.90;;;;;;4202207;28;20084;-86
2023/06/25 06:59:37;;;;;;;9.90;4.50;;;22.60;99.90;;;;;;4230939;28;20044;-86
2023/06/25 07:01:38;;;;;;;8.40;4.80;;;22.70;99.90;;;;;;4219354;28;20040;-86
2023/06/25 07:03:39;;;;;;;10.57;4.82;;;22.70;99.90;;;;;;4198986;28;20047;-85
2023/06/25 07:05:40;;;;;;;8.73;4.65;;;22.80;99.90;;;;;;4218430;28;20062;-86
2023/06/25 07:07:43;;;;;;;7.85;4.85;;;22.80;99.90;;;;;;4218129;28;20040;-86
2023/06/25 07:09:51;;;;;;;7.18;4.55;;;23.00;99.90;;;;;;4216932;28;20130;-85
2023/06/25 07:11:52;;;;;;;12.85;4.80;;;23.10;99.90;;;;;;4217350;28;20040;-86
2023/06/25 07:13:53;;;;;;;8.27;5.32;;;23.20;99.90;;;;;;4216829;28;20100;-85
2023/06/25 07:15:55;;;;;;;7.15;4.90;;;23.30;99.90;;;;;;4217011;28;20128;-85
2023/06/25 07:17:56;;;;;;;10.43;4.53;;;23.40;99.90;;;;;;4216343;28;20487;-85
2023/06/25 07:19:57;;;;;;;9.65;5.05;;;23.60;99.90;;;;;;4218450;28;20136;-85
2023/06/25 07:21:58;;;;;;;8.15;4.85;;;23.70;99.90;;;;;;4215361;28;20577;-86
2023/06/25 07:23:58;;;;;;;9.88;4.93;;;23.60;99.90;;;;;;4216642;28;20473;-86
2023/06/25 07:26:08;;;;;;;10.02;5.22;;;23.60;99.90;;;;;;4217021;28;20036;-85
2023/06/25 07:28:09;;;;;;;11.60;5.72;;;23.70;99.90;;;;;;4215663;28;20055;-85
2023/06/25 07:30:10;;;;;;;10.13;5.65;;;23.80;99.90;;;;;;4216730;28;20055;-84
2023/06/25 07:32:11;;;;;;;8.88;5.30;;;23.80;99.90;;;;;;4217143;28;20044;-86
2023/06/25 07:34:12;;;;;;;9.15;5.80;;;23.90;99.90;;;;;;4218201;28;20105;-86
2023/06/25 07:36:14;;;;;;;9.88;5.80;;;24.00;99.90;;;;;;4217638;28;20083;-86
2023/06/25 07:38:15;;;;;;;10.68;5.47;;;24.10;99.90;;;;;;4220970;28;20051;-88
2023/06/25 07:40:17;;;;;;;8.10;6.05;;;24.20;99.90;;;;;;4221912;28;20480;-88
2023/06/25 07:42:19;;;;;;;8.13;5.03;;;24.30;99.90;;;;;;4219734;28;20131;-88
2023/06/25 07:44:26;;;;;;;10.10;5.30;;;24.30;99.90;;;;;;4220407;28;20075;-87
2023/06/25 07:46:27;;;;;;;8.38;5.47;;;24.50;99.90;;;;;;4201494;28;20504;-88
2023/06/25 07:48:28;;;;;;;14.25;5.60;;;24.60;99.90;;;;;;4220399;28;20054;-88
2023/06/25 07:50:29;;;;;;;11.18;6.10;;;24.80;99.90;;;;;;4219438;28;20524;-88
2023/06/25 07:52:30;;;;;;;10.80;6.50;;;24.80;99.90;;;;;;4220691;28;20056;-89
2023/06/25 07:54:31;;;;;;;12.80;6.47;;;24.90;99.90;;;;;;4231732;28;20047;-88
2023/06/25 07:56:31;;;;;;;11.57;5.75;;;24.90;99.90;;;;;;4193041;28;20043;-89
2023/06/25 07:58:34;;;;;;;10.07;6.57;;;25.20;99.90;;;;;;4205076;28;20139;-88
2023/06/25 08:00:35;;;;;;;10.32;6.13;;;25.30;99.90;;;;;;4219097;28;20028;-87
2023/06/25 08:02:36;;;;;;;11.52;6.20;;;25.40;99.90;;;;;;4221619;28;20104;-87
2023/06/25 08:04:37;;;;;;;8.43;5.90;;;25.50;99.90;;;;;;4201979;28;20054;-87
2023/06/25 08:06:38;;;;;;;6.95;5.82;;;25.50;99.90;;;;;;4219790;28;20055;-88
2023/06/25 08:08:39;;;;;;;10.75;6.95;;;25.60;99.90;;;;;;4201913;28;20504;-87
2023/06/25 08:10:42;;;;;;;10.43;6.65;;;25.70;99.90;;;;;;4216274;28;20127;-89
2023/06/25 08:12:44;;;;;;;13.05;6.97;;;25.80;99.90;;;;;;4216663;28;20490;-90
2023/06/25 08:14:46;;;;;;;10.05;5.60;;;26.00;99.90;;;;;;4217049;28;20496;-90
2023/06/25 08:16:48;;;;;;;10.20;6.82;;;26.20;99.90;;;;;;4235840;28;20047;-91
2023/06/25 08:18:49;;;;;;;13.93;7.20;;;26.20;99.90;;;;;;4201326;28;20506;-90
2023/06/25 08:20:50;;;;;;;10.05;6.38;;;26.30;99.90;;;;;;4220416;28;20086;-88
2023/06/25 08:22:51;;;;;;;8.98;6.75;;;26.30;99.90;;;;;;4201473;28;20049;-88
2023/06/25 08:24:52;;;;;;;12.15;6.50;;;26.30;99.90;;;;;;4199977;28;20538;-88
2023/06/25 08:26:52;;;;;;;11.70;6.88;;;26.30;99.90;;;;;;4214470;28;20143;-89
2023/06/25 08:29:04;;;;;;;15.63;7.28;;;26.20;99.90;;;;;;4203560;28;20052;-90
2023/06/25 08:31:10;;;;;;;11.10;6.85;;;26.40;99.90;;;;;;4222179;28;20032;-89
2023/06/25 08:33:11;;;;;;;7.65;5.97;;;26.50;99.90;;;;;;4198653;28;20049;-89
2023/06/25 08:35:12;;;;;;;11.00;6.65;;;26.60;99.90;;;;;;4226936;28;20089;-90
2023/06/25 08:37:13;;;;;;;8.80;5.97;;;26.70;99.90;;;;;;4216158;28;20051;-88
2023/06/25 08:39:14;;;;;;;8.82;6.85;;;26.80;99.90;;;;;;4198529;28;20051;-88
2023/06/25 08:41:15;;;;;;;8.90;6.85;;;26.70;99.90;;;;;;4234077;28;20043;-90
2023/06/25 08:43:16;;;;;;;9.40;5.45;;;26.80;99.90;;;;;;4199823;28;20086;-90
2023/06/25 08:45:17;;;;;;;8.57;5.78;;;27.00;99.90;;;;;;4208717;28;20036;-89
2023/06/25 08:47:19;;;;;;;8.77;6.47;;;27.20;99.90;;;;;;4198432;28;20044;-90
2023/06/25 08:49:25;;;;;;;8.35;5.93;;;27.40;99.90;;;;;;4216115;28;20115;-89
2023/06/25 08:51:26;;;;;;;7.68;5.63;;;27.50;99.40;;;;;;4210542;28;20120;-90
2023/06/25 08:53:31;;;;;;;8.98;5.00;;;27.50;99.30;;;;;;4200107;28;20044;-90
2023/06/25 08:55:34;;;;;;;10.00;5.47;;;27.60;98.60;;;;;;4184055;28;20118;-89
2023/06/25 08:57:37;;;;;;;10.10;6.13;;;27.40;98.90;;;;;;4199828;28;20049;-89
2023/06/25 08:59:38;;;;;;;5.85;4.65;;;27.90;98.70;;;;;;4200707;28;20524;-89
2023/06/25 09:01:41;;;;;;;9.70;5.97;;;28.20;99.00;;;;;;4182058;28;20044;-89
2023/06/25 09:03:42;;;;;;;9.23;6.05;;;28.40;98.30;;;;;;4199936;28;20576;-90
2023/06/25 09:05:57;;;;;;;8.52;6.10;;;28.30;97.50;;;;;;4199825;28;20044;-90
2023/06/25 09:07:59;;;;;;;6.90;4.88;;;28.30;96.70;;;;;;4198793;28;20120;-90
2023/06/25 09:10:00;;;;;;;9.25;6.45;;;28.40;97.40;;;;;;4211603;28;20050;-89
2023/06/25 09:12:25;;;;;;;6.55;4.57;;;28.50;96.80;;;;;;4232278;28;20493;-89
2023/06/25 09:14:37;;;;;;;6.47;5.03;;;28.60;96.70;;;;;;4199262;28;20052;-89
2023/06/25 09:16:46;;;;;;;7.78;4.70;;;28.90;96.50;;;;;;4233575;28;20393;-89
2023/06/25 09:18:47;;;;;;;7.85;5.07;;;29.10;95.50;;;;;;4216598;28;20052;-89
2023/06/25 09:20:49;;;;;;;8.68;5.72;;;29.10;95.30;;;;;;4215457;28;20113;-90
2023/06/25 09:22:56;;;;;;;6.65;4.53;;;28.90;94.80;;;;;;4199760;28;20702;-89
2023/06/25 09:24:57;;;;;;;4.10;3.60;;;29.10;94.70;;;;;;4232232;28;20123;-89
2023/06/25 09:26:58;;;;;;;5.43;4.28;;;29.30;94.60;;;;;;4216156;28;20044;-90
2023/06/25 09:28:59;;;;;;;6.22;4.38;;;29.40;93.90;;;;;;4198086;28;20087;-90
2023/06/25 09:31:01;;;;;;;6.65;4.55;;;29.70;93.70;;;;;;4233421;28;20048;-89
2023/06/25 09:33:05;;;;;;;6.93;3.40;;;29.80;92.80;;;;;;4217302;28;20051;-90
2023/06/25 09:35:06;;;;;;;4.32;3.17;;;29.80;91.70;;;;;;4213317;28;20381;-89
2023/06/25 09:37:21;;;;;;;6.05;2.80;;;29.80;91.40;;;;;;4243403;28;20032;-90
2023/06/25 09:39:32;;;;;;;3.75;2.55;;;30.00;90.10;;;;;;4218636;28;20044;-90
2023/06/25 09:41:35;;;;;;;5.30;3.20;;;30.20;90.90;;;;;;4216984;28;20170;-89
2023/06/25 09:43:36;;;;;;;5.65;3.30;;;30.30;89.80;;;;;;4216869;28;20052;-90
2023/06/25 09:45:39;;;;;;;5.15;3.05;;;30.40;88.00;;;;;;4229681;28;20093;-90
2023/06/25 09:47:42;;;;;;;6.40;4.18;;;30.50;85.70;;;;;;4202025;28;20094;-90
2023/06/25 09:49:45;;;;;;;7.90;4.50;;;30.30;85.60;;;;;;4219252;28;20089;-89
2023/06/25 09:51:58;;;;;;;7.93;3.58;;;30.30;85.50;;;;;;4201513;28;20040;-89
2023/06/25 09:54:05;;;;;;;5.43;4.00;;;30.50;86.80;;;;;;4221303;28;20539;-89
2023/06/25 09:56:08;;;;;;;4.25;3.30;;;30.70;83.90;;;;;;4220220;28;20128;-90
2023/06/25 09:58:09;;;;;;;5.07;3.22;;;30.80;84.00;;;;;;4201506;28;20131;-90
2023/06/25 10:00:14;;;;;;;4.00;2.92;;;30.80;83.30;;;;;;4220223;28;20512;-89
2023/06/25 10:02:16;;;;;;;5.10;3.17;;;30.80;83.00;;;;;;4214364;28;20051;-89
2023/06/25 10:04:17;;;;;;;8.13;3.55;;;31.10;84.20;;;;;;4213227;28;20051;-90
2023/06/25 10:06:24;;;;;;;4.70;3.50;;;31.30;82.60;;;;;;4220899;28;20098;-89
2023/06/25 10:08:26;;;;;;;4.28;3.35;;;31.40;81.70;;;;;;4204511;28;20040;-88
2023/06/25 10:10:31;;;;;;;6.18;3.60;;;31.50;82.70;;;;;;4200564;28;20078;-87
2023/06/25 10:12:49;;;;;;;5.55;3.83;;;31.70;82.90;;;;;;4204688;28;20060;-87
2023/06/25 10:14:53;;;;;;;5.35;3.90;;;31.70;82.00;;;;;;4218577;28;20036;-88
2023/06/25 10:16:56;;;;;;;6.30;3.70;;;31.70;80.50;;;;;;4201415;28;20098;-88
2023/06/25 10:18:57;;;;;;;4.88;3.50;;;31.70;82.00;;;;;;4217670;28;20048;-88
2023/06/25 10:21:01;;;;;;;7.78;3.53;;;31.80;80.60;;;;;;4201716;28;20394;-88
2023/06/25 10:23:13;;;;;;;6.10;3.63;;;31.60;78.50;;;;;;4213483;28;20044;-88
2023/06/25 10:25:28;;;;;;;5.30;3.45;;;31.50;76.50;;;;;;4235183;28;20048;-88
2023/06/25 10:27:30;;;;;;;5.28;3.88;;;31.60;75.30;;;;;;4219726;28;20067;-87
2023/06/25 10:29:42;;;;;;;4.88;3.35;;;31.40;77.10;;;;;;4217525;28;20056;-86
2023/06/25 10:31:45;;;;;;;4.88;3.00;;;31.40;75.70;;;;;;4235624;28;20039;-87